Time;durP1;ratioP1;P1;durP2;ratioP2;P2;SDS_P1;SDS_P2;PMS_P1;PMS_P2;Temp;Humidity;BMP_temperature;BMP_pressure;BME280_temperature;BME280_humidity;BME280_pressure;Samples;Min_cycle;Max_cycle;Signal;HPM_P1;HPM_P2
2022/12/23 00:00:56;;;;;;;54.85;31.08;;;;;;;8.53;100.00;100174.66;5021844;28;20037;-70
2022/12/23 00:03:23;;;;;;;54.53;30.52;;;;;;;8.53;100.00;100173.75;5023633;28;20040;-72
2022/12/23 00:05:48;;;;;;;57.00;31.90;;;;;;;8.55;100.00;100182.56;5021935;28;20112;-71
2022/12/23 00:08:13;;;;;;;57.60;31.90;;;;;;;8.52;100.00;100177.28;5022627;28;20033;-70
2022/12/23 00:10:39;;;;;;;58.15;32.22;;;;;;;8.53;100.00;100190.47;5023154;28;20040;-71
2022/12/23 00:15:49;;;;;;;58.13;32.22;;;;;;;8.55;100.00;100193.97;5021748;28;20051;-71
2022/12/23 00:18:15;;;;;;;59.45;33.88;;;;;;;8.53;100.00;100192.19;5022947;28;20104;-73
2022/12/23 00:20:40;;;;;;;61.85;34.03;;;;;;;8.54;100.00;100197.47;5022864;28;20026;-72
2022/12/23 00:23:06;;;;;;;60.75;33.22;;;;;;;8.55;100.00;100201.00;5021525;28;20045;-73
2022/12/23 00:25:39;;;;;;;66.15;34.50;;;;;;;8.52;100.00;100201.00;5024278;28;20481;-71
2022/12/23 00:28:16;;;;;;;65.85;34.97;;;;;;;8.52;100.00;100204.50;5021016;28;20072;-72
2022/12/23 00:30:45;;;;;;;65.80;34.80;;;;;;;8.53;100.00;100206.28;5023006;28;20025;-72
2022/12/23 00:33:11;;;;;;;63.08;34.50;;;;;;;8.54;100.00;100199.25;5025564;28;20473;-71
2022/12/23 00:35:37;;;;;;;62.72;35.45;;;;;;;8.55;100.00;100203.63;5027138;28;20037;-72
2022/12/23 00:38:02;;;;;;;65.97;35.95;;;;;;;8.57;100.00;100209.78;5024231;28;20037;-73
2022/12/23 00:43:11;;;;;;;69.88;35.42;;;;;;;8.56;100.00;100218.56;5025880;28;20060;-71
2022/12/23 00:45:36;;;;;;;65.45;35.50;;;;;;;8.55;100.00;100219.44;5026895;28;20033;-73
2022/12/23 00:50:49;;;;;;;66.75;35.58;;;;;;;8.53;100.00;100231.72;5026207;28;20501;-72
2022/12/23 00:53:14;;;;;;;69.70;35.33;;;;;;;8.52;100.00;100238.75;5025929;28;20084;-72
2022/12/23 00:55:40;;;;;;;61.97;33.70;;;;;;;8.53;100.00;100236.97;5024889;28;20509;-72
2022/12/23 00:58:05;;;;;;;61.80;33.00;;;;;;;8.51;100.00;100241.38;5026901;28;20452;-72
2022/12/23 01:05:59;;;;;;;63.28;33.08;;;;;;;8.51;100.00;100246.66;5024019;28;20060;-73
2022/12/23 01:08:25;;;;;;;63.15;34.88;;;;;;;8.51;100.00;100239.63;5026738;28;20061;-73
2022/12/23 01:10:51;;;;;;;63.85;34.58;;;;;;;8.52;100.00;100253.69;5024447;28;20053;-73
2022/12/23 01:13:16;;;;;;;65.30;34.08;;;;;;;8.50;100.00;100242.25;5026072;28;20030;-73
2022/12/23 01:15:42;;;;;;;67.30;34.60;;;;;;;8.49;100.00;100246.66;5025591;28;20091;-73
2022/12/23 01:18:07;;;;;;;64.13;33.45;;;;;;;8.50;100.00;100251.06;5023233;28;20030;-72
2022/12/23 01:20:32;;;;;;;58.40;31.48;;;;;;;8.49;100.00;100251.03;5027257;28;20032;-71
2022/12/23 01:22:58;;;;;;;60.42;32.80;;;;;;;8.48;100.00;100246.66;5023526;28;20579;-71
2022/12/23 01:25:23;;;;;;;64.50;31.88;;;;;;;8.46;100.00;100249.28;5025243;28;20045;-71
2022/12/23 01:27:48;;;;;;;65.68;34.45;;;;;;;8.47;100.00;100250.16;5025114;28;20021;-75
2022/12/23 01:30:14;;;;;;;70.00;34.45;;;;;;;8.49;100.00;100261.56;5024833;28;20037;-73
2022/12/23 01:32:39;;;;;;;64.30;34.30;;;;;;;8.49;100.00;100261.56;5026000;28;20124;-74
2022/12/23 01:35:04;;;;;;;72.43;35.03;;;;;;;8.49;100.00;100256.28;5023377;28;20477;-74
2022/12/23 01:37:30;;;;;;;76.43;34.95;;;;;;;8.48;100.00;100249.28;5026618;28;20064;-72
2022/12/23 01:39:55;;;;;;;71.30;35.38;;;;;;;8.48;100.00;100251.91;5023634;28;20125;-71
2022/12/23 01:45:13;;;;;;;82.40;37.22;;;;;;;8.47;100.00;100255.41;5023489;28;20040;-74
2022/12/23 01:47:45;;;;;;;75.75;36.50;;;;;;;8.45;100.00;100270.34;5025428;28;20021;-70
2022/12/23 01:50:36;;;;;;;71.60;35.65;;;;;;;8.47;100.00;100268.59;5023887;28;20070;-74
2022/12/23 01:53:04;;;;;;;73.03;36.35;;;;;;;8.45;100.00;100268.59;5014867;28;20041;-70
2022/12/23 01:55:34;;;;;;;77.25;36.60;;;;;;;8.44;100.00;100266.81;5022984;28;20116;-72
2022/12/23 01:58:07;;;;;;;74.90;35.22;;;;;;;8.45;100.00;100267.72;5022616;28;20046;-72
2022/12/23 02:11:59;;;;;;;73.82;37.47;;;;;;;8.48;100.00;100292.28;5022806;28;20080;-70
2022/12/23 02:17:40;;;;;;;78.72;38.88;;;;;;;8.47;100.00;100298.44;5023390;28;20061;-71
2022/12/23 02:20:33;;;;;;;76.28;37.50;;;;;;;8.44;100.00;100292.25;5025530;28;20106;-71
2022/12/23 02:23:01;;;;;;;;;;;;;;;8.45;100.00;100287.03;5022991;28;20037;-71
2022/12/23 02:25:35;;;;;;;73.07;35.85;;;;;;;8.44;100.00;100294.88;5025486;28;20253;-74
2022/12/23 02:28:06;;;;;;;70.07;36.88;;;;;;;8.44;100.00;100295.78;5022463;28;20358;-71
2022/12/23 02:31:00;;;;;;;74.97;35.70;;;;;;;8.44;100.00;100306.31;5022243;28;20088;-73
2022/12/23 02:34:14;;;;;;;71.28;34.60;;;;;;;8.43;100.00;100308.91;5024860;28;20037;-74
2022/12/23 02:37:02;;;;;;;69.85;33.90;;;;;;;8.44;100.00;100313.31;4991639;28;20042;-72
2022/12/23 02:39:34;;;;;;;69.25;32.83;;;;;;;8.46;100.00;100330.03;5023979;28;20029;-73
2022/12/23 02:42:14;;;;;;;66.97;34.03;;;;;;;8.46;100.00;100337.94;5022031;28;20059;-74
2022/12/23 02:44:44;;;;;;;67.90;32.80;;;;;;;8.46;100.00;100340.56;5021380;28;20374;-71
2022/12/23 02:47:15;;;;;;;72.63;32.60;;;;;;;8.44;100.00;100353.75;5024291;28;20155;-74
2022/12/23 02:49:44;;;;;;;68.13;32.03;;;;;;;8.44;100.00;100350.19;5022944;28;20547;-73
2022/12/23 02:52:14;;;;;;;72.50;33.53;;;;;;;8.45;100.00;100360.78;5024530;28;20030;-72
2022/12/23 02:54:51;;;;;;;69.85;31.60;;;;;;;8.44;100.00;100358.09;5022043;28;20061;-71
2022/12/23 02:57:21;;;;;;;63.15;29.95;;;;;;;8.44;100.00;100359.00;5023253;28;20057;-73
2022/12/23 02:59:50;;;;;;;68.63;30.63;;;;;;;8.45;100.00;100359.91;5023326;28;20168;-71
2022/12/23 03:02:15;;;;;;;71.22;30.92;;;;;;;8.44;100.00;100350.19;5023631;28;20036;-73
2022/12/23 03:04:41;;;;;;;69.38;30.83;;;;;;;8.43;100.00;100361.59;5022557;28;20026;-74
2022/12/23 03:07:14;;;;;;;72.68;31.80;;;;;;;8.41;100.00;100355.47;5024724;28;20076;-74
2022/12/23 03:10:14;;;;;;;65.72;29.23;;;;;;;8.42;100.00;100362.47;5021143;28;20029;-71
2022/12/23 03:12:46;;;;;;;67.72;29.42;;;;;;;8.42;100.00;100370.38;5022268;28;20030;-73
2022/12/23 03:15:25;;;;;;;62.20;29.10;;;;;;;8.42;100.00;100368.63;5024149;28;20069;-72
2022/12/23 03:17:53;;;;;;;65.13;27.20;;;;;;;8.41;100.00;100353.69;5023905;28;20018;-74
2022/12/23 03:20:34;;;;;;;63.97;29.00;;;;;;;8.42;100.00;100362.47;5022598;28;20468;-74
2022/12/23 03:23:27;;;;;;;64.30;28.13;;;;;;;8.45;100.00;100355.50;5021436;28;20022;-70
2022/12/23 03:26:08;;;;;;;62.95;27.27;;;;;;;8.40;100.00;100357.19;5024106;28;20087;-72
2022/12/23 03:28:46;;;;;;;63.53;28.52;;;;;;;8.39;100.00;100358.09;5021214;28;20022;-72
2022/12/23 03:31:16;;;;;;;64.97;29.13;;;;;;;8.38;100.00;100349.28;5023355;28;20025;-73
2022/12/23 03:33:46;;;;;;;67.03;28.15;;;;;;;8.36;100.00;100360.72;5022332;28;20350;-74
2022/12/23 03:36:19;;;;;;;64.88;28.23;;;;;;;8.36;100.00;100348.41;5023726;28;20026;-74
2022/12/23 03:38:44;;;;;;;;;;;;;;;8.38;100.00;100354.56;5022981;28;20073;-73
2022/12/23 03:41:16;;;;;;;69.78;29.75;;;;;;;8.36;100.00;100356.31;5023675;28;19968;-73
2022/12/23 03:43:48;;;;;;;67.55;29.83;;;;;;;8.35;100.00;100362.44;5022298;28;20080;-73
2022/12/23 03:46:18;;;;;;;71.22;30.48;;;;;;;8.34;100.00;100358.06;5023304;28;20048;-70
2022/12/23 03:48:52;;;;;;;67.78;29.02;;;;;;;8.34;100.00;100344.91;5022297;28;20081;-71
2022/12/23 03:51:27;;;;;;;65.18;28.98;;;;;;;8.34;100.00;100354.53;5022748;28;20436;-70
2022/12/23 03:54:00;;;;;;;67.32;28.83;;;;;;;8.33;100.00;100355.38;5022236;28;20072;-74
2022/12/23 03:56:30;;;;;;;70.25;29.85;;;;;;;8.30;100.00;100353.66;5021548;28;20120;-74
2022/12/23 03:59:18;;;;;;;65.93;29.77;;;;;;;8.33;100.00;100360.66;5023705;28;20049;-74
2022/12/23 04:02:02;;;;;;;69.75;29.50;;;;;;;8.28;100.00;100358.00;5022119;28;20424;-74
2022/12/23 04:04:50;;;;;;;72.25;30.42;;;;;;;8.30;100.00;100364.19;5021139;28;20057;-74
2022/12/23 04:07:26;;;;;;;69.90;29.98;;;;;;;8.28;100.00;100371.16;5025264;28;20033;-72
2022/12/23 04:09:52;;;;;;;75.38;29.85;;;;;;;8.26;100.00;100370.28;5025792;28;20026;-74
2022/12/23 04:12:19;;;;;;;71.68;31.05;;;;;;;8.25;100.00;100370.28;5026555;28;20037;-74
2022/12/23 04:14:47;;;;;;;74.43;30.88;;;;;;;8.24;100.00;100377.28;5026817;28;20029;-74
2022/12/23 04:17:13;;;;;;;76.63;30.25;;;;;;;8.24;100.00;100371.16;5025745;28;20033;-74
2022/12/23 04:19:38;;;;;;;82.13;31.95;;;;;;;8.25;100.00;100376.41;5027507;28;20033;-74
2022/12/23 04:22:03;;;;;;;81.45;32.00;;;;;;;8.26;100.00;100379.97;5024845;28;20034;-74
2022/12/23 04:24:29;;;;;;;78.90;31.20;;;;;;;8.24;100.00;100392.22;5028158;28;20036;-74
2022/12/23 04:26:54;;;;;;;83.65;33.00;;;;;;;8.22;100.00;100393.97;5025156;28;20033;-73
2022/12/23 04:29:19;;;;;;;85.45;32.03;;;;;;;8.21;100.00;100390.44;5026709;28;20080;-73
2022/12/23 04:31:45;;;;;;;79.65;31.33;;;;;;;8.20;100.00;100399.22;5026308;28;20093;-73
2022/12/23 04:34:10;;;;;;;76.70;31.23;;;;;;;8.17;100.00;100396.56;5025472;28;20082;-73
2022/12/23 04:36:35;;;;;;;78.32;30.73;;;;;;;8.20;100.00;100407.13;5027537;28;20052;-70
2022/12/23 04:39:01;;;;;;;74.50;31.27;;;;;;;8.20;100.00;100412.41;5024309;28;20022;-73
2022/12/23 04:41:26;;;;;;;75.35;31.58;;;;;;;8.19;100.00;100408.00;5027379;28;20057;-73
2022/12/23 04:43:52;;;;;;;73.05;31.63;;;;;;;8.19;100.00;100398.31;5025214;28;20037;-73
2022/12/23 04:46:17;;;;;;;77.93;30.73;;;;;;;8.22;100.00;100393.97;5025765;28;20057;-73
2022/12/23 04:48:42;;;;;;;83.22;31.42;;;;;;;8.18;100.00;100393.06;5025305;28;20053;-72
2022/12/23 04:51:08;;;;;;;83.72;32.72;;;;;;;8.19;100.00;100387.78;5023228;28;20034;-73
2022/12/23 04:53:35;;;;;;;82.90;32.80;;;;;;;8.17;100.00;100389.53;5027487;28;20061;-73
2022/12/23 04:56:01;;;;;;;86.85;33.10;;;;;;;8.14;100.00;100378.09;5024162;28;20034;-74
2022/12/23 04:58:26;;;;;;;85.38;33.10;;;;;;;8.15;100.00;100374.59;5026612;28;20057;-73
2022/12/23 05:01:07;;;;;;;85.50;32.28;;;;;;;8.15;100.00;100377.22;5024964;28;20484;-73
2022/12/23 05:03:32;;;;;;;86.07;33.13;;;;;;;8.11;100.00;100371.09;5024022;28;20570;-73
2022/12/23 05:05:58;;;;;;;86.85;32.88;;;;;;;8.11;100.00;100370.19;5027041;28;20033;-73
2022/12/23 05:08:23;;;;;;;74.78;31.38;;;;;;;8.11;100.00;100367.53;5023390;28;20358;-72
2022/12/23 05:10:48;;;;;;;75.03;29.65;;;;;;;8.11;100.00;100376.34;5025725;28;20030;-73
2022/12/23 05:13:14;;;;;;;72.57;29.25;;;;;;;8.10;100.00;100369.31;5025851;28;20029;-72
2022/12/23 05:15:43;;;;;;;70.63;29.48;;;;;;;8.09;100.00;100377.19;5024188;28;20038;-73
2022/12/23 05:18:08;;;;;;;70.57;28.48;;;;;;;8.10;100.00;100385.09;5026330;28;20100;-74
2022/12/23 05:20:33;;;;;;;69.10;26.63;;;;;;;8.09;100.00;100390.38;5023527;28;20544;-73
2022/12/23 05:22:59;;;;;;;67.22;29.60;;;;;;;8.09;100.00;100396.50;5026700;28;20480;-73
2022/12/23 05:25:24;;;;;;;65.18;27.42;;;;;;;8.09;100.00;100404.41;5024440;28;20388;-73
2022/12/23 05:27:49;;;;;;;70.97;29.83;;;;;;;8.10;100.00;100411.44;5025344;28;20432;-73
2022/12/23 05:30:15;;;;;;;70.15;28.40;;;;;;;8.10;100.00;100421.09;5024108;28;20036;-73
2022/12/23 05:32:40;;;;;;;72.57;29.08;;;;;;;8.11;100.00;100428.09;5024142;28;20034;-74
2022/12/23 05:35:06;;;;;;;71.00;28.13;;;;;;;8.10;100.00;100423.72;5026547;28;20043;-73
2022/12/23 05:37:31;;;;;;;69.28;28.63;;;;;;;8.11;100.00;100426.38;5023232;28;20032;-73
2022/12/23 05:39:56;;;;;;;71.95;29.35;;;;;;;8.13;100.00;100426.38;5026219;28;20038;-74
2022/12/23 05:42:22;;;;;;;72.22;27.90;;;;;;;8.14;100.00;100430.75;5024494;28;20037;-73
2022/12/23 05:44:47;;;;;;;68.38;28.15;;;;;;;8.13;100.00;100436.91;5025117;28;20113;-74
2022/12/23 05:47:12;;;;;;;77.80;29.67;;;;;;;8.16;100.00;100434.31;5025631;28;20033;-74
2022/12/23 05:49:38;;;;;;;74.43;29.60;;;;;;;8.16;100.00;100434.31;5023271;28;20022;-74
2022/12/23 05:52:03;;;;;;;79.63;31.25;;;;;;;8.14;100.00;100428.13;5026565;28;20029;-71
2022/12/23 05:54:29;;;;;;;76.35;29.75;;;;;;;8.14;100.00;100425.50;5022996;28;20061;-74
2022/12/23 05:56:54;;;;;;;79.95;31.15;;;;;;;8.13;100.00;100418.47;5023989;28;20030;-73
2022/12/23 05:59:19;;;;;;;79.35;30.85;;;;;;;8.14;100.00;100412.31;5023067;28;20111;-71
2022/12/23 06:01:45;;;;;;;81.03;32.17;;;;;;;8.15;100.00;100408.84;5024045;28;20026;-74
2022/12/23 06:04:10;;;;;;;81.82;30.92;;;;;;;8.14;100.00;100407.06;5025422;28;20032;-72
2022/12/23 06:06:36;;;;;;;79.13;30.80;;;;;;;8.13;100.00;100406.19;5022849;28;20108;-73
2022/12/23 06:09:01;;;;;;;80.13;32.20;;;;;;;8.12;100.00;100408.81;5024717;28;20030;-74
2022/12/23 06:11:27;;;;;;;86.10;32.70;;;;;;;8.14;100.00;100397.44;5022944;28;20069;-74
2022/12/23 06:13:52;;;;;;;91.80;35.80;;;;;;;8.12;100.00;100391.25;5024799;28;20033;-74
2022/12/23 06:16:18;;;;;;;90.22;34.67;;;;;;;8.12;100.00;100387.75;5024215;28;20029;-74
2022/12/23 06:18:43;;;;;;;92.60;34.28;;;;;;;8.11;100.00;100391.25;5022124;28;20504;-73
2022/12/23 06:21:08;;;;;;;91.72;35.25;;;;;;;8.10;100.00;100385.09;5025524;28;20061;-74
2022/12/23 06:23:34;;;;;;;97.25;35.47;;;;;;;8.11;100.00;100381.63;5022559;28;20026;-74
2022/12/23 06:26:00;;;;;;;96.57;36.05;;;;;;;8.09;100.00;100379.84;5025616;28;20040;-73
2022/12/23 06:28:26;;;;;;;107.00;37.60;;;;;;;8.10;100.00;100381.59;5022526;28;20400;-76
2022/12/23 06:30:56;;;;;;;96.72;36.58;;;;;;;8.09;100.00;100382.47;5028786;28;20036;-73
2022/12/23 06:33:21;;;;;;;106.13;37.22;;;;;;;8.08;100.00;100391.22;5026831;28;20069;-74
2022/12/23 06:35:47;;;;;;;102.70;37.40;;;;;;;8.08;100.00;100399.13;5024966;28;20077;-72
2022/12/23 06:38:12;;;;;;;101.05;38.38;;;;;;;8.07;100.00;100400.88;5027083;28;20025;-73
2022/12/23 06:40:37;;;;;;;117.38;39.30;;;;;;;8.07;100.00;100394.72;5028724;28;20057;-74
2022/12/23 06:43:03;;;;;;;110.45;40.50;;;;;;;8.05;100.00;100397.34;5029247;28;20033;-76
2022/12/23 06:45:28;;;;;;;114.38;40.50;;;;;;;8.02;100.00;100397.31;5027224;28;20033;-75
2022/12/23 06:47:54;;;;;;;106.63;39.70;;;;;;;8.02;100.00;100413.13;5024358;28;20022;-74
2022/12/23 06:50:19;;;;;;;110.88;39.60;;;;;;;7.99;100.00;100414.00;5026203;28;20121;-73
2022/12/23 06:52:45;;;;;;;110.15;39.80;;;;;;;7.99;100.00;100414.00;5026723;28;20030;-73
2022/12/23 06:55:11;;;;;;;107.28;39.47;;;;;;;7.98;100.00;100425.38;5027340;28;20077;-74
2022/12/23 06:57:36;;;;;;;115.80;40.70;;;;;;;8.00;100.00;100421.00;5026241;28;20048;-73
2022/12/23 07:00:03;;;;;;;112.22;40.88;;;;;;;8.00;100.00;100441.19;5026931;28;20081;-71
2022/12/23 07:02:29;;;;;;;113.57;41.72;;;;;;;8.02;100.00;100445.59;5026291;28;20089;-74
2022/12/23 07:04:54;;;;;;;117.03;40.85;;;;;;;8.03;100.00;100457.00;5025577;28;20415;-73
2022/12/23 07:07:19;;;;;;;117.28;40.60;;;;;;;8.06;100.00;100469.31;5026793;28;20033;-75
2022/12/23 07:09:45;;;;;;;112.43;41.17;;;;;;;8.05;100.00;100472.81;5027465;28;20030;-75
2022/12/23 07:12:10;;;;;;;123.05;42.25;;;;;;;8.07;100.00;100476.31;5027967;28;20029;-73
2022/12/23 07:14:35;;;;;;;119.55;42.22;;;;;;;8.06;100.00;100464.06;5025165;28;20504;-74
2022/12/23 07:17:01;;;;;;;128.35;42.63;;;;;;;8.06;100.00;100445.63;5025559;28;20034;-72
2022/12/23 07:19:26;;;;;;;127.20;42.42;;;;;;;8.07;100.00;100443.00;5026523;28;20029;-74
2022/12/23 07:21:51;;;;;;;129.60;43.85;;;;;;;8.07;100.00;100431.56;5024586;28;20132;-76
2022/12/23 07:24:17;;;;;;;130.38;42.75;;;;;;;8.07;100.00;100439.47;5026680;28;20106;-72
2022/12/23 07:26:42;;;;;;;125.70;41.63;;;;;;;8.09;100.00;100443.03;5027219;28;20040;-72
2022/12/23 07:29:07;;;;;;;149.02;43.80;;;;;;;8.06;100.00;100437.72;5025597;28;20056;-70
2022/12/23 07:31:33;;;;;;;131.27;42.25;;;;;;;8.05;100.00;100444.72;5027215;28;20033;-71
2022/12/23 07:33:58;;;;;;;128.82;41.65;;;;;;;8.05;100.00;100447.34;5024158;28;20037;-76
2022/12/23 07:36:24;;;;;;;131.80;40.90;;;;;;;8.06;100.00;100435.09;5024371;28;20513;-75
2022/12/23 07:38:52;;;;;;;130.13;41.28;;;;;;;8.05;100.00;100430.69;5025412;28;20044;-77
2022/12/23 07:41:18;;;;;;;132.43;41.65;;;;;;;8.05;100.00;100428.94;5023804;28;20034;-75
2022/12/23 07:43:43;;;;;;;128.43;42.30;;;;;;;8.05;100.00;100439.47;5025690;28;20071;-77
2022/12/23 07:46:09;;;;;;;139.50;41.55;;;;;;;8.03;100.00;100436.81;5026405;28;20030;-74
2022/12/23 07:48:34;;;;;;;128.95;41.00;;;;;;;8.02;100.00;100429.81;5026293;28;20099;-75
2022/12/23 07:51:01;;;;;;;134.27;42.63;;;;;;;8.02;100.00;100427.19;5024386;28;20038;-74
2022/12/23 07:53:27;;;;;;;140.00;42.53;;;;;;;8.02;100.00;100431.53;5026723;28;20029;-73
2022/12/23 07:55:52;;;;;;;128.55;40.83;;;;;;;8.02;100.00;100444.69;5024301;28;20480;-70
2022/12/23 07:58:17;;;;;;;152.30;42.45;;;;;;;7.99;100.00;100424.53;5024377;28;20042;-77
2022/12/23 08:00:43;;;;;;;135.23;40.38;;;;;;;8.00;100.00;100433.28;5025100;28;20049;-75
2022/12/23 08:03:10;;;;;;;140.27;41.42;;;;;;;8.03;100.00;100446.47;5024022;28;20109;-76
2022/12/23 08:05:35;;;;;;;151.38;42.55;;;;;;;8.01;100.00;100442.97;5025161;28;20030;-78
2022/12/23 08:08:01;;;;;;;137.07;40.00;;;;;;;7.98;100.00;100425.38;5027794;28;20485;-76
2022/12/23 08:10:26;;;;;;;139.88;40.20;;;;;;;7.98;100.00;100412.22;5023038;28;20116;-75
2022/12/23 08:12:52;;;;;;;126.55;39.08;;;;;;;7.95;100.00;100414.84;5021900;28;20041;-75
2022/12/23 08:15:17;;;;;;;119.88;37.20;;;;;;;7.95;100.00;100428.00;5026658;28;20056;-78
2022/12/23 08:17:43;;;;;;;120.57;37.38;;;;;;;7.96;100.00;100419.22;5025257;28;20030;-75
2022/12/23 08:20:08;;;;;;;133.98;38.58;;;;;;;7.94;100.00;100405.16;5025995;28;20064;-76
2022/12/23 08:22:34;;;;;;;109.38;35.30;;;;;;;7.95;100.00;100414.84;5026340;28;20021;-74
2022/12/23 08:24:59;;;;;;;111.35;35.33;;;;;;;7.94;100.00;100415.69;5025306;28;20034;-76
2022/12/23 08:27:25;;;;;;;120.63;36.28;;;;;;;7.94;100.00;100423.59;5027121;28;20468;-76
2022/12/23 08:29:50;;;;;;;105.72;33.42;;;;;;;7.96;100.00;100434.13;5026398;28;20082;-77
2022/12/23 08:32:15;;;;;;;114.50;34.83;;;;;;;7.95;100.00;100419.19;5027684;28;20077;-75
2022/12/23 08:34:41;;;;;;;99.72;32.72;;;;;;;7.96;100.00;100420.97;5022282;28;20041;-74
2022/12/23 08:37:06;;;;;;;90.85;31.55;;;;;;;7.97;100.00;100423.63;5026483;28;20473;-72
2022/12/23 08:39:32;;;;;;;92.28;31.85;;;;;;;7.96;100.00;100416.56;5027070;28;20042;-75
2022/12/23 08:41:57;;;;;;;98.97;32.00;;;;;;;7.95;100.00;100406.94;5026600;28;20135;-75
2022/12/23 08:44:25;;;;;;;95.88;30.80;;;;;;;7.93;100.00;100406.03;5012562;28;20040;-75
2022/12/23 08:46:52;;;;;;;97.20;30.42;;;;;;;7.91;100.00;100402.50;5027665;28;20037;-75
2022/12/23 08:49:17;;;;;;;84.78;29.17;;;;;;;7.94;100.00;100394.63;5021103;28;20112;-74
2022/12/23 08:51:43;;;;;;;90.00;31.10;;;;;;;7.94;100.00;100397.28;5026133;28;20105;-75
2022/12/23 08:54:09;;;;;;;86.03;29.45;;;;;;;7.95;100.00;100393.78;5028090;28;20484;-72
2022/12/23 08:56:39;;;;;;;91.72;31.05;;;;;;;7.94;100.00;100397.28;5026952;28;20500;-73
2022/12/23 08:59:05;;;;;;;93.32;30.67;;;;;;;7.95;100.00;100391.16;5026673;28;20053;-73
2022/12/23 09:01:32;;;;;;;90.35;29.67;;;;;;;7.94;100.00;100389.38;5030590;28;20029;-73
2022/12/23 09:04:02;;;;;;;78.40;28.83;;;;;;;7.94;100.00;100378.84;5027490;28;20115;-72
2022/12/23 09:06:40;;;;;;;76.57;27.42;;;;;;;7.94;100.00;100388.50;5028876;28;20953;-73
2022/12/23 09:09:06;;;;;;;75.72;26.88;;;;;;;7.94;100.00;100365.69;5027751;28;20107;-78
2022/12/23 09:11:33;;;;;;;81.65;26.98;;;;;;;7.93;100.00;100365.69;5025943;28;20036;-74
2022/12/23 09:13:59;;;;;;;79.50;27.30;;;;;;;7.91;100.00;100363.03;5023373;28;20389;-73
2022/12/23 09:16:25;;;;;;;72.72;26.83;;;;;;;7.91;100.00;100362.16;5022845;28;20033;-75
2022/12/23 09:18:51;;;;;;;69.13;26.02;;;;;;;7.92;100.00;100359.53;5022977;28;20484;-74
2022/12/23 09:21:19;;;;;;;61.83;24.45;;;;;;;7.93;100.00;100356.00;5028531;28;20092;-74
2022/12/23 09:23:45;;;;;;;70.55;26.08;;;;;;;7.92;100.00;100335.84;5031401;28;20037;-73
2022/12/23 09:26:17;;;;;;;63.65;25.05;;;;;;;7.94;100.00;100342.00;5030861;28;20443;-74
2022/12/23 09:28:42;;;;;;;65.20;24.67;;;;;;;7.97;100.00;100335.88;5028534;28;20064;-75
2022/12/23 09:31:09;;;;;;;66.00;24.23;;;;;;;7.97;100.00;100347.28;5025875;28;20057;-76
2022/12/23 09:33:35;;;;;;;65.55;24.40;;;;;;;7.97;100.00;100335.88;5026957;28;20029;-73
2022/12/23 09:36:01;;;;;;;60.78;24.00;;;;;;;7.95;100.00;100338.50;5025573;28;20034;-71
2022/12/23 09:38:27;;;;;;;57.63;22.67;;;;;;;7.97;100.00;100341.16;5027144;28;20064;-72
2022/12/23 09:40:52;;;;;;;63.15;23.60;;;;;;;7.95;100.00;100333.25;5028747;28;20029;-73
2022/12/23 09:43:51;;;;;;;56.65;21.98;;;;;;;7.94;100.00;100336.72;5025222;28;20052;-72
2022/12/23 09:46:25;;;;;;;54.78;22.25;;;;;;;7.94;100.00;100336.72;4998319;28;20033;-73
2022/12/23 09:49:07;;;;;;;53.30;20.33;;;;;;;7.93;100.00;100319.16;5026801;28;20108;-77
2022/12/23 09:51:33;;;;;;;54.23;20.93;;;;;;;7.94;100.00;100313.03;5023978;28;20037;-73
2022/12/23 09:54:21;;;;;;;52.67;20.95;;;;;;;7.93;100.00;100313.91;5024388;28;20528;-73
2022/12/23 09:57:03;;;;;;;48.65;20.67;;;;;;;7.97;100.00;100320.09;5025845;28;20029;-74
2022/12/23 10:00:05;;;;;;;50.57;20.83;;;;;;;7.98;100.00;100327.09;5024577;28;20054;-76
2022/12/23 10:02:48;;;;;;;52.13;20.67;;;;;;;7.98;100.00;100322.72;4995906;28;20476;-76
2022/12/23 10:05:34;;;;;;;48.72;20.00;;;;;;;7.99;100.00;100321.88;5023995;28;20112;-75
2022/12/23 10:08:26;;;;;;;49.45;20.00;;;;;;;8.01;100.00;100332.41;5027148;28;20487;-75
2022/12/23 10:11:10;;;;;;;51.03;20.80;;;;;;;7.97;100.00;100318.31;5026883;28;20060;-74
2022/12/23 10:13:43;;;;;;;54.25;21.98;;;;;;;7.96;100.00;100306.03;5027287;28;20033;-76
2022/12/23 10:16:13;;;;;;;;;;;;;;;7.99;100.00;100298.19;5026293;28;20543;-73
2022/12/23 10:18:57;;;;;;;53.20;22.95;;;;;;;7.98;100.00;100291.13;5026820;28;19917;-74
2022/12/23 10:21:39;;;;;;;53.60;23.52;;;;;;;8.01;100.00;100296.41;5025488;28;20026;-72
2022/12/23 10:24:23;;;;;;;54.67;24.63;;;;;;;8.02;100.00;100285.03;5025958;28;20423;-71
2022/12/23 10:26:54;;;;;;;55.40;22.88;;;;;;;8.05;100.00;100285.91;5025809;28;20101;-71
2022/12/23 10:29:25;;;;;;;50.90;22.02;;;;;;;8.05;100.00;100264.84;5025235;28;20041;-71
2022/12/23 10:32:20;;;;;;;52.58;21.75;;;;;;;8.09;100.00;100264.88;5022629;28;20029;-76
2022/12/23 10:35:04;;;;;;;49.08;22.17;;;;;;;8.10;100.00;100265.75;5022430;28;20376;-74
2022/12/23 10:37:44;;;;;;;50.80;21.67;;;;;;;8.14;100.00;100249.09;5024955;28;20160;-75
2022/12/23 10:40:33;;;;;;;49.67;21.45;;;;;;;8.19;100.00;100247.38;5023934;28;20392;-75
2022/12/23 10:43:21;;;;;;;48.20;20.67;;;;;;;8.24;100.00;100245.63;5023660;28;20025;-74
2022/12/23 10:46:06;;;;;;;48.67;20.05;;;;;;;8.23;100.00;100238.63;5022002;28;20034;-70
2022/12/23 10:48:40;;;;;;;47.63;19.80;;;;;;;8.22;100.00;100241.25;5023881;28;20032;-75
2022/12/23 10:51:16;;;;;;;48.55;19.70;;;;;;;8.20;100.00;100234.22;5021494;28;20029;-74
2022/12/23 10:53:53;;;;;;;45.53;19.02;;;;;;;8.21;100.00;100227.19;5025445;28;20467;-73
2022/12/23 10:56:19;;;;;;;45.78;18.13;;;;;;;8.19;100.00;100221.03;5022163;28;20087;-74
2022/12/23 10:58:49;;;;;;;41.17;17.55;;;;;;;8.15;100.00;100211.38;5025198;28;20033;-74
2022/12/23 11:01:16;;;;;;;41.35;16.70;;;;;;;8.13;100.00;100210.50;5021842;28;20032;-74
2022/12/23 11:03:52;;;;;;;44.53;17.42;;;;;;;8.12;100.00;100191.16;5025165;28;20079;-74
2022/12/23 11:06:18;;;;;;;39.03;16.70;;;;;;;8.11;100.00;100180.63;5021887;28;20507;-74
2022/12/23 11:08:44;;;;;;;37.97;16.02;;;;;;;8.09;100.00;100178.00;5023735;28;20030;-74
2022/12/23 11:11:10;;;;;;;43.45;17.30;;;;;;;8.12;100.00;100171.88;5021697;28;20042;-73
2022/12/23 11:13:39;;;;;;;39.08;16.60;;;;;;;8.10;100.00;100174.50;5022493;28;20108;-72
2022/12/23 11:16:25;;;;;;;39.80;17.38;;;;;;;8.13;100.00;100178.91;5027735;28;20423;-75
2022/12/23 11:18:58;;;;;;;39.17;17.35;;;;;;;8.11;100.00;100175.34;5028875;28;20034;-76
2022/12/23 11:21:23;;;;;;;;;;;;;;;8.10;100.00;100173.63;5028284;28;20033;-76
2022/12/23 11:24:18;;;;;;;39.70;16.50;;;;;;;8.06;100.00;100177.13;5022048;28;19980;-76
2022/12/23 11:26:46;;;;;;;40.20;16.35;;;;;;;8.03;100.00;100172.72;5022779;28;20025;-75
2022/12/23 11:29:22;;;;;;;38.78;16.88;;;;;;;8.02;100.00;100165.69;5023355;28;20076;-76
2022/12/23 11:31:48;;;;;;;40.28;17.17;;;;;;;8.01;100.00;100158.69;5026054;28;20533;-76
2022/12/23 11:34:20;;;;;;;39.35;17.10;;;;;;;8.01;100.00;100148.16;5022069;28;20371;-75
2022/12/23 11:36:55;;;;;;;40.90;16.75;;;;;;;7.99;100.00;100145.50;5026548;28;20056;-77
2022/12/23 11:39:27;;;;;;;41.08;17.13;;;;;;;7.99;100.00;100150.78;5023664;28;20025;-79
2022/12/23 11:42:01;;;;;;;39.65;16.10;;;;;;;8.02;100.00;100137.63;5024188;28;20014;-80
2022/12/23 11:44:41;;;;;;;41.00;16.58;;;;;;;8.02;100.00;100135.00;5021646;28;20476;-79
2022/12/23 11:47:28;;;;;;;36.25;15.60;;;;;;;7.98;100.00;100120.06;5023491;28;20026;-78
2022/12/23 11:49:56;;;;;;;37.15;15.23;;;;;;;7.97;100.00;100117.41;5023850;28;20353;-75
2022/12/23 11:52:27;;;;;;;37.63;14.90;;;;;;;7.97;100.00;100114.78;5023051;28;20464;-73